BAW3459 EGSS-VHHH
Flight info
| Callsign | BAW3459 |
|---|---|
| Flight time | N/A |
| Altitude | 29000 |
| Route | CLN P44 RATLO M197 REDFA L620 TACHA DCT NOMKA L620 SUVUT/N0493F310 L620 OMELO DCT EVIKU DCT ROMIS DCT DEMOP DCT NARKA DCT IPTOL DCT UDROS UM859 KARDE UL851 ERIDU/N0495F330 UL851 TBN UN61 NOLGA N61 LAGAS M747 SUBUT T916 BALUN/K0906F330 T916 KUNAS Z627 BORIS N147 AGERA/K0902F350 N147 ELAHA Z621 ARBOL L728 KAMUD/K0898S1070 W186 SADAN Y1 MEPEP/K0902S1130 Y1 OMBON W245 OVRAL B330 DAGDI W234 NIXID B330 POU R473 SIERA |
| Aircraft | B744/H-SDE3FGHIM1M2RWXY/LB1 |
Departure
| Time | N/A |
|---|---|
| Airport | London Stansted Airport (EGSS) |
Arrival
| Time | 2026-05-05 06:12 |
|---|---|
| Airport | Hong Kong International Airport (VHHH) |
| Time | Latitude | Longitude | Altitude | Speed | Heading |
|---|---|---|---|---|---|
| 2026-05-05 03:35 | 35.57066 | 99.10763 | 30814 ft | 550 kts | 117° |
| 2026-05-05 03:35 | 35.55367 | 99.14974 | 30812 ft | 550 kts | 117° |
| 2026-05-05 03:36 | 35.53674 | 99.19165 | 30808 ft | 568 kts | 117° |
| 2026-05-05 03:36 | 35.52006 | 99.23293 | 31140 ft | 529 kts | 117° |
| 2026-05-05 03:36 | 35.50375 | 99.27321 | 32062 ft | 511 kts | 117° |
| 2026-05-05 03:36 | 35.48771 | 99.31264 | 33069 ft | 505 kts | 117° |
| 2026-05-05 03:37 | 35.47173 | 99.35181 | 33737 ft | 536 kts | 117° |
| 2026-05-05 03:37 | 35.45575 | 99.39103 | 34237 ft | 515 kts | 116° |
| 2026-05-05 03:37 | 35.43974 | 99.43044 | 34709 ft | 504 kts | 116° |
| 2026-05-05 03:37 | 35.42369 | 99.46996 | 35123 ft | 520 kts | 116° |
| 2026-05-05 03:38 | 35.40751 | 99.50975 | 35536 ft | 519 kts | 116° |
| 2026-05-05 03:38 | 35.39120 | 99.54949 | 35941 ft | 527 kts | 116° |
| 2026-05-05 03:38 | 35.37488 | 99.58979 | 36310 ft | 518 kts | 116° |
| 2026-05-05 03:38 | 35.35879 | 99.62911 | 36668 ft | 533 kts | 116° |
| 2026-05-05 03:39 | 35.34222 | 99.66949 | 36835 ft | 531 kts | 116° |
| 2026-05-05 03:39 | 35.32567 | 99.71000 | 36857 ft | 526 kts | 116° |
| 2026-05-05 03:39 | 35.29325 | 99.78886 | 36842 ft | 521 kts | 116° |
| 2026-05-05 03:40 | 35.27661 | 99.82921 | 36843 ft | 545 kts | 117° |
| 2026-05-05 03:40 | 35.26031 | 99.86858 | 36836 ft | 538 kts | 117° |
| 2026-05-05 03:40 | 35.22715 | 99.94893 | 36826 ft | 540 kts | 117° |
| 2026-05-05 03:41 | 35.19401 | 100.02897 | 36821 ft | 527 kts | 117° |
| 2026-05-05 03:41 | 35.16079 | 100.10901 | 36818 ft | 529 kts | 117° |
| 2026-05-05 03:42 | 35.14422 | 100.14887 | 36818 ft | 548 kts | 117° |
| 2026-05-05 03:42 | 35.12753 | 100.18896 | 36815 ft | 529 kts | 117° |
| 2026-05-05 03:42 | 35.09424 | 100.26879 | 36817 ft | 528 kts | 117° |
| 2026-05-05 03:43 | 35.06087 | 100.34864 | 36821 ft | 543 kts | 117° |
| 2026-05-05 03:43 | 35.04418 | 100.38851 | 36823 ft | 527 kts | 117° |
| 2026-05-05 03:43 | 35.02747 | 100.42836 | 36826 ft | 527 kts | 117° |
| 2026-05-05 03:44 | 34.99400 | 100.50806 | 36836 ft | 529 kts | 117° |
| 2026-05-05 03:44 | 34.96050 | 100.58764 | 36845 ft | 527 kts | 117° |
| 2026-05-05 03:45 | 34.92695 | 100.66714 | 36854 ft | 523 kts | 117° |
| 2026-05-05 03:45 | 34.89358 | 100.74603 | 36861 ft | 529 kts | 117° |
| 2026-05-05 03:46 | 34.85965 | 100.82607 | 36872 ft | 527 kts | 117° |
| 2026-05-05 03:46 | 34.82593 | 100.90540 | 36880 ft | 526 kts | 117° |
| 2026-05-05 03:47 | 34.79239 | 100.98416 | 36884 ft | 526 kts | 117° |
| 2026-05-05 03:47 | 34.75853 | 101.06346 | 36890 ft | 527 kts | 117° |
| 2026-05-05 03:48 | 34.72463 | 101.14268 | 36896 ft | 526 kts | 117° |
| 2026-05-05 03:48 | 34.69070 | 101.22177 | 36897 ft | 527 kts | 117° |
| 2026-05-05 03:49 | 34.65676 | 101.30072 | 36898 ft | 528 kts | 117° |
| 2026-05-05 03:49 | 34.62272 | 101.37969 | 36895 ft | 526 kts | 117° |
| 2026-05-05 03:50 | 34.58889 | 101.45802 | 36901 ft | 527 kts | 117° |
| 2026-05-05 03:50 | 34.55485 | 101.53664 | 36905 ft | 525 kts | 117° |
| 2026-05-05 03:51 | 34.52080 | 101.61512 | 36911 ft | 527 kts | 117° |
| 2026-05-05 03:51 | 34.48669 | 101.69355 | 36916 ft | 525 kts | 117° |
| 2026-05-05 03:52 | 34.45254 | 101.77188 | 36916 ft | 526 kts | 117° |
| 2026-05-05 03:52 | 34.41836 | 101.85010 | 36927 ft | 535 kts | 117° |
| 2026-05-05 03:53 | 34.38418 | 101.92816 | 36935 ft | 530 kts | 117° |
| 2026-05-05 03:53 | 34.34988 | 102.00632 | 36942 ft | 524 kts | 117° |
| 2026-05-05 03:54 | 34.33271 | 102.04537 | 36940 ft | 562 kts | 117° |
| 2026-05-05 03:54 | 34.31556 | 102.08433 | 36944 ft | 523 kts | 117° |
| 2026-05-05 03:54 | 34.28140 | 102.16181 | 36953 ft | 524 kts | 117° |
| 2026-05-05 03:55 | 34.24702 | 102.23961 | 36954 ft | 524 kts | 117° |
| 2026-05-05 03:55 | 34.21258 | 102.31738 | 36958 ft | 524 kts | 117° |
| 2026-05-05 03:56 | 34.17818 | 102.39512 | 36961 ft | 520 kts | 117° |
| 2026-05-05 03:56 | 34.14486 | 102.47328 | 36959 ft | 522 kts | 116° |
| 2026-05-05 03:57 | 34.11175 | 102.55151 | 36958 ft | 523 kts | 116° |
| 2026-05-05 03:57 | 34.07847 | 102.62946 | 36953 ft | 527 kts | 116° |
| 2026-05-05 03:58 | 34.04510 | 102.70717 | 36954 ft | 519 kts | 116° |
| 2026-05-05 03:58 | 34.01187 | 102.78431 | 36953 ft | 527 kts | 117° |
| 2026-05-05 03:59 | 33.97845 | 102.86174 | 36947 ft | 520 kts | 117° |
| 2026-05-05 03:59 | 33.94497 | 102.93916 | 36940 ft | 520 kts | 117° |
| 2026-05-05 04:00 | 33.91157 | 103.01663 | 36936 ft | 523 kts | 117° |
| 2026-05-05 04:00 | 33.87781 | 103.09456 | 36930 ft | 545 kts | 118° |
| 2026-05-05 04:01 | 33.86073 | 103.13355 | 36927 ft | 513 kts | 118° |
| 2026-05-05 04:01 | 33.84362 | 103.17255 | 36924 ft | 526 kts | 118° |
| 2026-05-05 04:01 | 33.80934 | 103.25071 | 36921 ft | 528 kts | 117° |
| 2026-05-05 04:02 | 33.77509 | 103.32894 | 36912 ft | 528 kts | 117° |
| 2026-05-05 04:02 | 33.74081 | 103.40714 | 36911 ft | 529 kts | 117° |
| 2026-05-05 04:03 | 33.72361 | 103.44633 | 36911 ft | 541 kts | 117° |
| 2026-05-05 04:03 | 33.70643 | 103.48543 | 36909 ft | 531 kts | 117° |
| 2026-05-05 04:03 | 33.67201 | 103.56361 | 36902 ft | 529 kts | 117° |
| 2026-05-05 04:04 | 33.63769 | 103.64136 | 36905 ft | 528 kts | 117° |
| 2026-05-05 04:04 | 33.60316 | 103.71945 | 36905 ft | 528 kts | 117° |
| 2026-05-05 04:05 | 33.57439 | 103.78436 | 36902 ft | 531 kts | 117° |
| 2026-05-05 04:05 | 33.53969 | 103.86251 | 36901 ft | 523 kts | 117° |
| 2026-05-05 04:06 | 33.50498 | 103.94049 | 36908 ft | 530 kts | 117° |
| 2026-05-05 04:06 | 33.48760 | 103.97949 | 36906 ft | 515 kts | 117° |
| 2026-05-05 04:06 | 33.47022 | 104.01843 | 36907 ft | 529 kts | 117° |
| 2026-05-05 04:07 | 33.43539 | 104.09635 | 36912 ft | 529 kts | 117° |
| 2026-05-05 04:07 | 33.40053 | 104.17416 | 36917 ft | 534 kts | 117° |
| 2026-05-05 04:08 | 33.36237 | 104.24944 | 36920 ft | 535 kts | 131° |
| 2026-05-05 04:08 | 33.33473 | 104.27865 | 36927 ft | 531 kts | 146° |
| 2026-05-05 04:08 | 33.30271 | 104.30043 | 36930 ft | 555 kts | 155° |
| 2026-05-05 04:09 | 33.26945 | 104.31939 | 36935 ft | 535 kts | 157° |
| 2026-05-05 04:09 | 33.23579 | 104.33733 | 36933 ft | 526 kts | 158° |
| 2026-05-05 04:09 | 33.16835 | 104.37240 | 36943 ft | 527 kts | 158° |
| 2026-05-05 04:10 | 33.10042 | 104.40823 | 36944 ft | 537 kts | 158° |
| 2026-05-05 04:10 | 33.03218 | 104.44461 | 36960 ft | 548 kts | 157° |
| 2026-05-05 04:11 | 32.99802 | 104.46283 | 36962 ft | 536 kts | 157° |
| 2026-05-05 04:11 | 32.96379 | 104.48107 | 36966 ft | 538 kts | 157° |
| 2026-05-05 04:11 | 32.89513 | 104.51758 | 36969 ft | 545 kts | 157° |
| 2026-05-05 04:12 | 32.82639 | 104.55415 | 36975 ft | 544 kts | 157° |
| 2026-05-05 04:12 | 32.75604 | 104.58675 | 36976 ft | 544 kts | 169° |
| 2026-05-05 04:13 | 32.71934 | 104.59212 | 36984 ft | 537 kts | 180° |
| 2026-05-05 04:13 | 32.68204 | 104.59393 | 36988 ft | 534 kts | 182° |
| 2026-05-05 04:13 | 32.60759 | 104.59570 | 36992 ft | 533 kts | 182° |
| 2026-05-05 04:14 | 32.53307 | 104.59822 | 36995 ft | 530 kts | 181° |
| 2026-05-05 04:14 | 32.45891 | 104.60185 | 36999 ft | 533 kts | 181° |
| 2026-05-05 04:15 | 32.38553 | 104.60563 | 37003 ft | 525 kts | 182° |
| 2026-05-05 04:15 | 32.31256 | 104.60959 | 37003 ft | 523 kts | 182° |
| 2026-05-05 04:16 | 32.23974 | 104.61350 | 37003 ft | 520 kts | 182° |
| 2026-05-05 04:16 | 32.20330 | 104.61545 | 37006 ft | 537 kts | 182° |
| 2026-05-05 04:16 | 32.16690 | 104.61742 | 37004 ft | 524 kts | 182° |
| 2026-05-05 04:17 | 32.09392 | 104.62140 | 36998 ft | 526 kts | 183° |
| 2026-05-05 04:17 | 32.02122 | 104.62536 | 36997 ft | 524 kts | 183° |
| 2026-05-05 04:18 | 31.94812 | 104.62934 | 37001 ft | 525 kts | 183° |
| 2026-05-05 04:18 | 31.87492 | 104.63331 | 37000 ft | 532 kts | 183° |
| 2026-05-05 04:19 | 31.80165 | 104.63728 | 36993 ft | 526 kts | 183° |
| 2026-05-05 04:19 | 31.72857 | 104.64086 | 36997 ft | 517 kts | 184° |
| 2026-05-05 04:20 | 31.65575 | 104.64350 | 36993 ft | 524 kts | 184° |
| 2026-05-05 04:20 | 31.58267 | 104.64614 | 36984 ft | 525 kts | 184° |
| 2026-05-05 04:21 | 31.50958 | 104.64897 | 36989 ft | 523 kts | 184° |
| 2026-05-05 04:21 | 31.43652 | 104.65187 | 36983 ft | 522 kts | 184° |
| 2026-05-05 04:22 | 31.36336 | 104.65476 | 36980 ft | 525 kts | 184° |
| 2026-05-05 04:22 | 31.29030 | 104.65764 | 36978 ft | 523 kts | 184° |
| 2026-05-05 04:23 | 31.21722 | 104.66052 | 36977 ft | 524 kts | 184° |
| 2026-05-05 04:23 | 31.14422 | 104.66339 | 36976 ft | 523 kts | 184° |
| 2026-05-05 04:24 | 31.07139 | 104.66624 | 36978 ft | 520 kts | 184° |
| 2026-05-05 04:25 | 30.96192 | 104.67889 | 36982 ft | 536 kts | 181° |
| 2026-05-05 04:25 | 30.88880 | 104.68546 | 36976 ft | 531 kts | 180° |
| 2026-05-05 04:26 | 30.81483 | 104.69305 | 36976 ft | 537 kts | 179° |
| 2026-05-05 04:26 | 30.74079 | 104.70157 | 36979 ft | 534 kts | 179° |
| 2026-05-05 04:27 | 30.66698 | 104.71014 | 36974 ft | 550 kts | 179° |
| 2026-05-05 04:27 | 30.63017 | 104.71435 | 36979 ft | 527 kts | 179° |
| 2026-05-05 04:27 | 30.59330 | 104.71851 | 36977 ft | 522 kts | 179° |
| 2026-05-05 04:28 | 30.51972 | 104.72677 | 36987 ft | 534 kts | 179° |
| 2026-05-05 04:28 | 30.44659 | 104.73495 | 36987 ft | 532 kts | 179° |
| 2026-05-05 04:29 | 30.37310 | 104.74315 | 36987 ft | 528 kts | 179° |
| 2026-05-05 04:29 | 30.29970 | 104.75131 | 36988 ft | 529 kts | 180° |
| 2026-05-05 04:30 | 30.22620 | 104.75947 | 36988 ft | 527 kts | 180° |
| 2026-05-05 04:30 | 30.15295 | 104.76758 | 36987 ft | 528 kts | 180° |
| 2026-05-05 04:31 | 30.07993 | 104.77567 | 36984 ft | 525 kts | 180° |
| 2026-05-05 04:31 | 30.00697 | 104.78482 | 36978 ft | 530 kts | 175° |
| 2026-05-05 04:31 | 29.97169 | 104.79640 | 36978 ft | 536 kts | 164° |
| 2026-05-05 04:32 | 29.93693 | 104.81268 | 36978 ft | 536 kts | 161° |
| 2026-05-05 04:32 | 29.86839 | 104.84731 | 36977 ft | 535 kts | 160° |
| 2026-05-05 04:33 | 29.80007 | 104.88118 | 36977 ft | 532 kts | 161° |
| 2026-05-05 04:33 | 29.73191 | 104.91406 | 36975 ft | 529 kts | 161° |
| 2026-05-05 04:34 | 29.66438 | 104.94634 | 36975 ft | 521 kts | 161° |
| 2026-05-05 04:34 | 29.59611 | 104.97901 | 36967 ft | 524 kts | 161° |
| 2026-05-05 04:35 | 29.52906 | 105.01111 | 36969 ft | 525 kts | 160° |
| 2026-05-05 04:35 | 29.46038 | 105.03791 | 36968 ft | 521 kts | 166° |
| 2026-05-05 04:36 | 29.39152 | 105.06541 | 36955 ft | 524 kts | 164° |
| 2026-05-05 04:36 | 29.32245 | 105.09332 | 36960 ft | 530 kts | 165° |
| 2026-05-05 04:37 | 29.25276 | 105.12049 | 36958 ft | 530 kts | 166° |
| 2026-05-05 04:37 | 29.18248 | 105.14740 | 36955 ft | 535 kts | 167° |
| 2026-05-05 04:38 | 29.11208 | 105.17405 | 36953 ft | 537 kts | 167° |
| 2026-05-05 04:38 | 29.04074 | 105.20101 | 36949 ft | 539 kts | 167° |
| 2026-05-05 04:39 | 28.96934 | 105.22816 | 36947 ft | 555 kts | 167° |
| 2026-05-05 04:39 | 28.89786 | 105.25537 | 36946 ft | 538 kts | 167° |
| 2026-05-05 04:40 | 28.82645 | 105.28249 | 36943 ft | 542 kts | 167° |
| 2026-05-05 04:40 | 28.75508 | 105.30957 | 36942 ft | 538 kts | 167° |
| 2026-05-05 04:41 | 28.68414 | 105.33644 | 36938 ft | 539 kts | 167° |
| 2026-05-05 04:41 | 28.61275 | 105.36345 | 36939 ft | 541 kts | 167° |
| 2026-05-05 04:42 | 28.54128 | 105.39045 | 36932 ft | 540 kts | 167° |
| 2026-05-05 04:42 | 28.46978 | 105.41742 | 36932 ft | 539 kts | 167° |
| 2026-05-05 04:43 | 28.39844 | 105.44431 | 36937 ft | 538 kts | 167° |
| 2026-05-05 04:43 | 28.32701 | 105.47118 | 36940 ft | 539 kts | 167° |
| 2026-05-05 04:44 | 28.25615 | 105.49779 | 36954 ft | 531 kts | 167° |
| 2026-05-05 04:44 | 28.18484 | 105.52454 | 36975 ft | 538 kts | 167° |
| 2026-05-05 04:45 | 28.11360 | 105.55123 | 37010 ft | 540 kts | 167° |
| 2026-05-05 04:45 | 28.04169 | 105.57336 | 36974 ft | 532 kts | 178° |
| 2026-05-05 04:46 | 27.96860 | 105.58622 | 36986 ft | 529 kts | 176° |
| 2026-05-05 04:46 | 27.89528 | 105.59871 | 37000 ft | 526 kts | 177° |
| 2026-05-05 04:47 | 27.82189 | 105.61071 | 36993 ft | 538 kts | 175° |
| 2026-05-05 04:47 | 27.78573 | 105.62185 | 37003 ft | 543 kts | 162° |
| 2026-05-05 04:47 | 27.75194 | 105.64009 | 37010 ft | 550 kts | 155° |
| 2026-05-05 04:48 | 27.68529 | 105.68218 | 37022 ft | 554 kts | 155° |
| 2026-05-05 04:48 | 27.65228 | 105.70126 | 37022 ft | 538 kts | 158° |
| 2026-05-05 04:48 | 27.61863 | 105.71991 | 37027 ft | 538 kts | 159° |
| 2026-05-05 04:49 | 27.55103 | 105.75649 | 37035 ft | 538 kts | 160° |
| 2026-05-05 04:49 | 27.48297 | 105.79296 | 37043 ft | 542 kts | 160° |
| 2026-05-05 04:50 | 27.41470 | 105.82966 | 37047 ft | 544 kts | 159° |
| 2026-05-05 04:50 | 27.34623 | 105.86652 | 37045 ft | 546 kts | 159° |
| 2026-05-05 04:51 | 27.27754 | 105.90346 | 37057 ft | 546 kts | 159° |
| 2026-05-05 04:51 | 27.20850 | 105.94052 | 37065 ft | 549 kts | 159° |
| 2026-05-05 04:52 | 27.13910 | 105.97773 | 37071 ft | 558 kts | 159° |
| 2026-05-05 04:52 | 27.06948 | 106.01559 | 37073 ft | 559 kts | 154° |
| 2026-05-05 04:52 | 27.03774 | 106.04130 | 37072 ft | 571 kts | 139° |
| 2026-05-05 04:53 | 27.01136 | 106.07356 | 37075 ft | 593 kts | 129° |
| 2026-05-05 04:53 | 26.98714 | 106.10847 | 37078 ft | 567 kts | 127° |
| 2026-05-05 04:53 | 26.96364 | 106.14400 | 37085 ft | 565 kts | 126° |
| 2026-05-05 04:54 | 26.91696 | 106.21505 | 37088 ft | 565 kts | 126° |
| 2026-05-05 04:54 | 26.86984 | 106.28534 | 37094 ft | 563 kts | 127° |
| 2026-05-05 04:55 | 26.82256 | 106.35523 | 37099 ft | 564 kts | 127° |
| 2026-05-05 04:55 | 26.77530 | 106.42494 | 37111 ft | 574 kts | 127° |
| 2026-05-05 04:55 | 26.75171 | 106.45973 | 37116 ft | 560 kts | 128° |
| 2026-05-05 04:56 | 26.72812 | 106.49447 | 37120 ft | 569 kts | 128° |
| 2026-05-05 04:56 | 26.68861 | 106.55266 | 37140 ft | 559 kts | 128° |
| 2026-05-05 04:57 | 26.64181 | 106.62147 | 37150 ft | 558 kts | 128° |
| 2026-05-05 04:57 | 26.59474 | 106.69055 | 37163 ft | 563 kts | 128° |
| 2026-05-05 04:57 | 26.57124 | 106.72501 | 37168 ft | 551 kts | 128° |
| 2026-05-05 04:58 | 26.54775 | 106.75943 | 37168 ft | 551 kts | 128° |
| 2026-05-05 04:58 | 26.51087 | 106.83460 | 37169 ft | 546 kts | 107° |
| 2026-05-05 04:59 | 26.48905 | 106.91696 | 37164 ft | 550 kts | 104° |
| 2026-05-05 04:59 | 26.47872 | 106.95813 | 37165 ft | 575 kts | 104° |
| 2026-05-05 04:59 | 26.46809 | 106.99916 | 37160 ft | 539 kts | 105° |
| 2026-05-05 04:59 | 26.45731 | 107.03985 | 37155 ft | 550 kts | 106° |
| 2026-05-05 05:00 | 26.44625 | 107.08091 | 37154 ft | 542 kts | 106° |
| 2026-05-05 05:00 | 26.43557 | 107.12158 | 37148 ft | 561 kts | 106° |
| 2026-05-05 05:00 | 26.42478 | 107.16291 | 37148 ft | 556 kts | 106° |
| 2026-05-05 05:01 | 26.40287 | 107.24604 | 37144 ft | 561 kts | 107° |
| 2026-05-05 05:01 | 26.38075 | 107.32950 | 37143 ft | 561 kts | 107° |
| 2026-05-05 05:02 | 26.35849 | 107.41339 | 37137 ft | 562 kts | 107° |
| 2026-05-05 05:02 | 26.33626 | 107.49716 | 37136 ft | 562 kts | 107° |
| 2026-05-05 05:02 | 26.32517 | 107.53894 | 37130 ft | 573 kts | 107° |
| 2026-05-05 05:03 | 26.31422 | 107.57996 | 37130 ft | 587 kts | 107° |
| 2026-05-05 05:03 | 26.30311 | 107.62182 | 37129 ft | 561 kts | 107° |
| 2026-05-05 05:03 | 26.29204 | 107.66334 | 37128 ft | 573 kts | 107° |
| 2026-05-05 05:04 | 26.26980 | 107.74644 | 37127 ft | 560 kts | 107° |
| 2026-05-05 05:04 | 26.24762 | 107.82942 | 37125 ft | 540 kts | 107° |
| 2026-05-05 05:04 | 26.23652 | 107.87080 | 37125 ft | 556 kts | 107° |
| 2026-05-05 05:05 | 26.22544 | 107.91219 | 37124 ft | 543 kts | 107° |
| 2026-05-05 05:05 | 26.21446 | 107.95365 | 37127 ft | 567 kts | 106° |
| 2026-05-05 05:05 | 26.20357 | 107.99518 | 37127 ft | 552 kts | 106° |
| 2026-05-05 05:06 | 26.18155 | 108.07827 | 37123 ft | 560 kts | 106° |
| 2026-05-05 05:06 | 26.15944 | 108.16157 | 37121 ft | 562 kts | 106° |
| 2026-05-05 05:07 | 26.13723 | 108.24494 | 37117 ft | 562 kts | 106° |
| 2026-05-05 05:07 | 26.11513 | 108.32771 | 37120 ft | 561 kts | 106° |
| 2026-05-05 05:08 | 26.09278 | 108.41126 | 37119 ft | 570 kts | 105° |
| 2026-05-05 05:08 | 26.07088 | 108.49445 | 37118 ft | 559 kts | 105° |
| 2026-05-05 05:08 | 26.05988 | 108.53623 | 37113 ft | 572 kts | 105° |
| 2026-05-05 05:09 | 26.04899 | 108.57768 | 37116 ft | 581 kts | 105° |
| 2026-05-05 05:09 | 26.03810 | 108.61917 | 37114 ft | 563 kts | 106° |
| 2026-05-05 05:09 | 26.02705 | 108.66062 | 37104 ft | 558 kts | 106° |
| 2026-05-05 05:10 | 26.00508 | 108.74314 | 37088 ft | 555 kts | 106° |
| 2026-05-05 05:10 | 25.98326 | 108.82532 | 37080 ft | 554 kts | 106° |
| 2026-05-05 05:11 | 25.96143 | 108.90722 | 37105 ft | 552 kts | 106° |
| 2026-05-05 05:11 | 25.93960 | 108.98905 | 37101 ft | 540 kts | 105° |
| 2026-05-05 05:11 | 25.92874 | 109.02976 | 37097 ft | 558 kts | 105° |
| 2026-05-05 05:12 | 25.91783 | 109.07085 | 37100 ft | 554 kts | 105° |
| 2026-05-05 05:12 | 25.89652 | 109.15295 | 37096 ft | 566 kts | 105° |
| 2026-05-05 05:13 | 25.87534 | 109.23509 | 37098 ft | 575 kts | 105° |
| 2026-05-05 05:13 | 25.86478 | 109.27607 | 37102 ft | 544 kts | 105° |
| 2026-05-05 05:13 | 25.85393 | 109.31714 | 37096 ft | 560 kts | 105° |
| 2026-05-05 05:14 | 25.83248 | 109.39885 | 37101 ft | 555 kts | 105° |
| 2026-05-05 05:14 | 25.82175 | 109.43964 | 37094 ft | 605 kts | 105° |
| 2026-05-05 05:14 | 25.81096 | 109.48056 | 37092 ft | 551 kts | 105° |
| 2026-05-05 05:15 | 25.78952 | 109.56169 | 37086 ft | 540 kts | 107° |
| 2026-05-05 05:15 | 25.77517 | 109.60083 | 37084 ft | 564 kts | 121° |
| 2026-05-05 05:15 | 25.75268 | 109.63473 | 37085 ft | 572 kts | 135° |
| 2026-05-05 05:15 | 25.72655 | 109.66486 | 37088 ft | 544 kts | 139° |
| 2026-05-05 05:16 | 25.69944 | 109.69374 | 37087 ft | 543 kts | 140° |
| 2026-05-05 05:16 | 25.64462 | 109.75031 | 37089 ft | 545 kts | 140° |
| 2026-05-05 05:17 | 25.58961 | 109.80765 | 37088 ft | 570 kts | 139° |
| 2026-05-05 05:17 | 25.56210 | 109.83660 | 37091 ft | 539 kts | 139° |
| 2026-05-05 05:17 | 25.53482 | 109.86537 | 37087 ft | 535 kts | 139° |
| 2026-05-05 05:17 | 25.50716 | 109.89458 | 37089 ft | 547 kts | 139° |
| 2026-05-05 05:18 | 25.47970 | 109.92350 | 37082 ft | 544 kts | 139° |
| 2026-05-05 05:18 | 25.45214 | 109.95251 | 37091 ft | 555 kts | 139° |
| 2026-05-05 05:18 | 25.42458 | 109.98150 | 37090 ft | 549 kts | 139° |
| 2026-05-05 05:18 | 25.39692 | 110.01056 | 37088 ft | 564 kts | 139° |
| 2026-05-05 05:19 | 25.36931 | 110.03956 | 37087 ft | 556 kts | 139° |
| 2026-05-05 05:19 | 25.34167 | 110.06856 | 37087 ft | 530 kts | 139° |
| 2026-05-05 05:19 | 25.31416 | 110.09760 | 37083 ft | 567 kts | 139° |
| 2026-05-05 05:20 | 25.25920 | 110.15500 | 37085 ft | 552 kts | 138° |
| 2026-05-05 05:20 | 25.20344 | 110.21334 | 37083 ft | 556 kts | 138° |
| 2026-05-05 05:21 | 25.14814 | 110.27172 | 37083 ft | 542 kts | 137° |
| 2026-05-05 05:21 | 25.09321 | 110.33009 | 37087 ft | 556 kts | 137° |
| 2026-05-05 05:22 | 25.03751 | 110.38912 | 37090 ft | 570 kts | 137° |
| 2026-05-05 05:22 | 25.00957 | 110.41864 | 37083 ft | 557 kts | 137° |
| 2026-05-05 05:22 | 24.98158 | 110.44821 | 37086 ft | 544 kts | 137° |
| 2026-05-05 05:22 | 24.95359 | 110.47789 | 37091 ft | 557 kts | 137° |
| 2026-05-05 05:23 | 24.92566 | 110.50756 | 37086 ft | 514 kts | 138° |
| 2026-05-05 05:23 | 24.89796 | 110.53694 | 37097 ft | 556 kts | 138° |
| 2026-05-05 05:23 | 24.87050 | 110.56599 | 37085 ft | 553 kts | 139° |
| 2026-05-05 05:24 | 24.81549 | 110.62399 | 37090 ft | 598 kts | 139° |
| 2026-05-05 05:24 | 24.78800 | 110.65295 | 37086 ft | 545 kts | 139° |
| 2026-05-05 05:24 | 24.76076 | 110.68157 | 37104 ft | 540 kts | 140° |
| 2026-05-05 05:24 | 24.73384 | 110.70995 | 37100 ft | 555 kts | 140° |
| 2026-05-05 05:25 | 24.70671 | 110.73845 | 37077 ft | 538 kts | 140° |
| 2026-05-05 05:25 | 24.67978 | 110.76671 | 37079 ft | 580 kts | 140° |
| 2026-05-05 05:25 | 24.65294 | 110.79495 | 37092 ft | 522 kts | 140° |
| 2026-05-05 05:26 | 24.60014 | 110.85167 | 37092 ft | 528 kts | 139° |
| 2026-05-05 05:26 | 24.54768 | 110.90834 | 37092 ft | 542 kts | 139° |
| 2026-05-05 05:27 | 24.49538 | 110.96472 | 37092 ft | 522 kts | 139° |
| 2026-05-05 05:27 | 24.46914 | 110.99294 | 37093 ft | 549 kts | 139° |
| 2026-05-05 05:27 | 24.41692 | 111.04899 | 37092 ft | 559 kts | 140° |
| 2026-05-05 05:28 | 24.39087 | 111.07692 | 37094 ft | 544 kts | 140° |
| 2026-05-05 05:28 | 24.36518 | 111.10445 | 37091 ft | 533 kts | 140° |
| 2026-05-05 05:28 | 24.33922 | 111.13224 | 37095 ft | 494 kts | 140° |
| 2026-05-05 05:28 | 24.31321 | 111.16007 | 37093 ft | 521 kts | 140° |
| 2026-05-05 05:29 | 24.26134 | 111.21553 | 37090 ft | 519 kts | 140° |
| 2026-05-05 05:29 | 24.20874 | 111.26964 | 37086 ft | 516 kts | 147° |
| 2026-05-05 05:30 | 24.17882 | 111.29040 | 37091 ft | 491 kts | 156° |
| 2026-05-05 05:30 | 24.14759 | 111.30804 | 37094 ft | 504 kts | 159° |
| 2026-05-05 05:30 | 24.08461 | 111.34153 | 37092 ft | 504 kts | 159° |
| 2026-05-05 05:31 | 24.05326 | 111.35836 | 37087 ft | 525 kts | 159° |
| 2026-05-05 05:31 | 24.02192 | 111.37549 | 37086 ft | 504 kts | 158° |
| 2026-05-05 05:31 | 23.99071 | 111.39280 | 37086 ft | 556 kts | 158° |
| 2026-05-05 05:31 | 23.95959 | 111.41015 | 37087 ft | 502 kts | 158° |
| 2026-05-05 05:32 | 23.89743 | 111.44491 | 37076 ft | 501 kts | 158° |
| 2026-05-05 05:32 | 23.83537 | 111.47952 | 37088 ft | 498 kts | 158° |
| 2026-05-05 05:33 | 23.80442 | 111.49660 | 37082 ft | 545 kts | 158° |
| 2026-05-05 05:33 | 23.77340 | 111.51400 | 37079 ft | 500 kts | 158° |
| 2026-05-05 05:33 | 23.71146 | 111.54830 | 37082 ft | 497 kts | 158° |
| 2026-05-05 05:34 | 23.65009 | 111.58238 | 37082 ft | 490 kts | 158° |
| 2026-05-05 05:34 | 23.58834 | 111.61665 | 37079 ft | 497 kts | 158° |
| 2026-05-05 05:35 | 23.52665 | 111.65076 | 37082 ft | 491 kts | 158° |
| 2026-05-05 05:35 | 23.46508 | 111.68482 | 37086 ft | 496 kts | 158° |
| 2026-05-05 05:36 | 23.40354 | 111.71883 | 37083 ft | 495 kts | 158° |
| 2026-05-05 05:36 | 23.34195 | 111.75283 | 37081 ft | 496 kts | 158° |
| 2026-05-05 05:37 | 23.28024 | 111.78701 | 37081 ft | 498 kts | 157° |
| 2026-05-05 05:37 | 23.25260 | 111.80468 | 37083 ft | 518 kts | 147° |
| 2026-05-05 05:37 | 23.22696 | 111.83135 | 37095 ft | 517 kts | 133° |
| 2026-05-05 05:38 | 23.20699 | 111.86417 | 37092 ft | 518 kts | 119° |
| 2026-05-05 05:38 | 23.19364 | 111.90082 | 37090 ft | 513 kts | 108° |
| 2026-05-05 05:38 | 23.18402 | 111.93914 | 37085 ft | 526 kts | 104° |
| 2026-05-05 05:38 | 23.17570 | 111.97782 | 37090 ft | 517 kts | 103° |
| 2026-05-05 05:39 | 23.16035 | 112.05495 | 37091 ft | 522 kts | 103° |
| 2026-05-05 05:39 | 23.14472 | 112.13208 | 37095 ft | 522 kts | 103° |
| 2026-05-05 05:40 | 23.12865 | 112.20904 | 37099 ft | 522 kts | 103° |
| 2026-05-05 05:40 | 23.11244 | 112.28599 | 37100 ft | 521 kts | 103° |
| 2026-05-05 05:41 | 23.09892 | 112.34992 | 37101 ft | 523 kts | 103° |
| 2026-05-05 05:41 | 23.08264 | 112.42681 | 37101 ft | 521 kts | 103° |
| 2026-05-05 05:42 | 23.07459 | 112.46516 | 37100 ft | 537 kts | 103° |
| 2026-05-05 05:42 | 23.06917 | 112.50409 | 37101 ft | 533 kts | 95° |
| 2026-05-05 05:42 | 23.06598 | 112.54347 | 37105 ft | 522 kts | 94° |
| 2026-05-05 05:42 | 23.06321 | 112.58291 | 37102 ft | 523 kts | 94° |
| 2026-05-05 05:43 | 23.05810 | 112.66143 | 37105 ft | 525 kts | 94° |
| 2026-05-05 05:43 | 23.05290 | 112.74050 | 37106 ft | 534 kts | 94° |
| 2026-05-05 05:44 | 23.04754 | 112.81928 | 37108 ft | 525 kts | 94° |
| 2026-05-05 05:44 | 23.04208 | 112.89788 | 37107 ft | 529 kts | 94° |
| 2026-05-05 05:45 | 23.03659 | 112.97639 | 37110 ft | 526 kts | 94° |
| 2026-05-05 05:45 | 23.03102 | 113.05615 | 37091 ft | 527 kts | 94° |
| 2026-05-05 05:46 | 23.02675 | 113.09620 | 36668 ft | 538 kts | 102° |
| 2026-05-05 05:46 | 23.01406 | 113.13453 | 36125 ft | 534 kts | 118° |
| 2026-05-05 05:46 | 22.99395 | 113.16758 | 35546 ft | 549 kts | 132° |
| 2026-05-05 05:46 | 22.96806 | 113.19488 | 34940 ft | 514 kts | 145° |
| 2026-05-05 05:47 | 22.93844 | 113.21517 | 34351 ft | 548 kts | 158° |
| 2026-05-05 05:47 | 22.90677 | 113.22983 | 33756 ft | 532 kts | 163° |
| 2026-05-05 05:47 | 22.87430 | 113.24240 | 33172 ft | 477 kts | 166° |
| 2026-05-05 05:47 | 22.84240 | 113.25371 | 32582 ft | 514 kts | 167° |
| 2026-05-05 05:48 | 22.81042 | 113.26448 | 32012 ft | 468 kts | 168° |
| 2026-05-05 05:48 | 22.77896 | 113.27508 | 31439 ft | 487 kts | 168° |
| 2026-05-05 05:48 | 22.74756 | 113.28564 | 30883 ft | 494 kts | 168° |
| 2026-05-05 05:48 | 22.71665 | 113.29619 | 30329 ft | 500 kts | 168° |
| 2026-05-05 05:49 | 22.68586 | 113.30674 | 29785 ft | 465 kts | 168° |
| 2026-05-05 05:49 | 22.65605 | 113.31719 | 29233 ft | 447 kts | 168° |
| 2026-05-05 05:49 | 22.62773 | 113.32715 | 28769 ft | 435 kts | 169° |
| 2026-05-05 05:49 | 22.60024 | 113.33656 | 28654 ft | 416 kts | 169° |
| 2026-05-05 05:50 | 22.57257 | 113.34599 | 28488 ft | 412 kts | 169° |
| 2026-05-05 05:50 | 22.54500 | 113.35549 | 28119 ft | 396 kts | 169° |
| 2026-05-05 05:50 | 22.51724 | 113.36483 | 27633 ft | 397 kts | 169° |
| 2026-05-05 05:50 | 22.49004 | 113.37414 | 27197 ft | 427 kts | 169° |
| 2026-05-05 05:51 | 22.46297 | 113.38343 | 26824 ft | 415 kts | 169° |
| 2026-05-05 05:51 | 22.43618 | 113.39268 | 26402 ft | 418 kts | 169° |
| 2026-05-05 05:51 | 22.40940 | 113.40186 | 25925 ft | 405 kts | 168° |
| 2026-05-05 05:51 | 22.38253 | 113.41115 | 25515 ft | 412 kts | 168° |
| 2026-05-05 05:52 | 22.35613 | 113.42031 | 25118 ft | 405 kts | 168° |
| 2026-05-05 05:52 | 22.32951 | 113.42952 | 24644 ft | 404 kts | 168° |
| 2026-05-05 05:52 | 22.30306 | 113.43867 | 24172 ft | 403 kts | 168° |
| 2026-05-05 05:52 | 22.27687 | 113.44773 | 23772 ft | 394 kts | 169° |
| 2026-05-05 05:53 | 22.25053 | 113.45679 | 23318 ft | 393 kts | 169° |
| 2026-05-05 05:53 | 22.22425 | 113.46585 | 22835 ft | 396 kts | 168° |
| 2026-05-05 05:53 | 22.19791 | 113.47540 | 22412 ft | 417 kts | 167° |
| 2026-05-05 05:53 | 22.17172 | 113.48506 | 21990 ft | 396 kts | 167° |
| 2026-05-05 05:54 | 22.14552 | 113.49461 | 21537 ft | 402 kts | 167° |
| 2026-05-05 05:54 | 22.11992 | 113.50393 | 21158 ft | 393 kts | 167° |
| 2026-05-05 05:54 | 22.09379 | 113.51338 | 20764 ft | 406 kts | 167° |
| 2026-05-05 05:54 | 22.06777 | 113.52284 | 20331 ft | 415 kts | 167° |
| 2026-05-05 05:55 | 22.04189 | 113.53228 | 19939 ft | 421 kts | 167° |
| 2026-05-05 05:55 | 22.01605 | 113.54172 | 19545 ft | 390 kts | 166° |
| 2026-05-05 05:55 | 21.99037 | 113.55112 | 19136 ft | 377 kts | 166° |
| 2026-05-05 05:55 | 21.96536 | 113.56277 | 18793 ft | 406 kts | 159° |
| 2026-05-05 05:56 | 21.94052 | 113.57488 | 18449 ft | 394 kts | 161° |
| 2026-05-05 05:56 | 21.91560 | 113.58636 | 18115 ft | 423 kts | 162° |
| 2026-05-05 05:56 | 21.89092 | 113.59744 | 17783 ft | 418 kts | 162° |
| 2026-05-05 05:56 | 21.86626 | 113.60847 | 17458 ft | 396 kts | 162° |
| 2026-05-05 05:57 | 21.84202 | 113.61935 | 17129 ft | 435 kts | 162° |
| 2026-05-05 05:57 | 21.81808 | 113.63018 | 16802 ft | 377 kts | 162° |
| 2026-05-05 05:57 | 21.79412 | 113.64110 | 16480 ft | 374 kts | 162° |
| 2026-05-05 05:57 | 21.77030 | 113.65203 | 16159 ft | 373 kts | 162° |
| 2026-05-05 05:58 | 21.74669 | 113.66288 | 15830 ft | 368 kts | 162° |
| 2026-05-05 05:58 | 21.72320 | 113.67369 | 15523 ft | 353 kts | 162° |
| 2026-05-05 05:58 | 21.69985 | 113.68443 | 15202 ft | 379 kts | 162° |
| 2026-05-05 05:58 | 21.67684 | 113.69539 | 14893 ft | 366 kts | 156° |
| 2026-05-05 05:59 | 21.65709 | 113.71263 | 14502 ft | 377 kts | 134° |
| 2026-05-05 05:59 | 21.64383 | 113.73654 | 14098 ft | 378 kts | 113° |
| 2026-05-05 05:59 | 21.63952 | 113.76366 | 13754 ft | 377 kts | 88° |
| 2026-05-05 05:59 | 21.64579 | 113.79053 | 13467 ft | 370 kts | 62° |
| 2026-05-05 06:00 | 21.66155 | 113.81181 | 13295 ft | 372 kts | 37° |
| 2026-05-05 06:00 | 21.68303 | 113.82528 | 13003 ft | 354 kts | 13° |
| 2026-05-05 06:00 | 21.70687 | 113.82831 | 12757 ft | 334 kts | 351° |
| 2026-05-05 06:00 | 21.73016 | 113.82472 | 12427 ft | 329 kts | 349° |
| 2026-05-05 06:01 | 21.75303 | 113.82542 | 12313 ft | 347 kts | 5° |
| 2026-05-05 06:01 | 21.77406 | 113.83356 | 12083 ft | 330 kts | 24° |
| 2026-05-05 06:01 | 21.79308 | 113.84709 | 11686 ft | 328 kts | 33° |
| 2026-05-05 06:01 | 21.81115 | 113.86276 | 11273 ft | 337 kts | 37° |
| 2026-05-05 06:02 | 21.82901 | 113.87815 | 11120 ft | 325 kts | 28° |
| 2026-05-05 06:02 | 21.84923 | 113.88698 | 10776 ft | 315 kts | 7° |
| 2026-05-05 06:02 | 21.87073 | 113.88768 | 10378 ft | 311 kts | 347° |
| 2026-05-05 06:02 | 21.89106 | 113.88133 | 10080 ft | 304 kts | 335° |
| 2026-05-05 06:03 | 21.90991 | 113.87343 | 9986 ft | 302 kts | 332° |
| 2026-05-05 06:03 | 21.92798 | 113.86500 | 9656 ft | 287 kts | 331° |
| 2026-05-05 06:03 | 21.94633 | 113.85597 | 9265 ft | 290 kts | 330° |
| 2026-05-05 06:03 | 21.96474 | 113.84674 | 9027 ft | 292 kts | 330° |
| 2026-05-05 06:04 | 21.98261 | 113.83779 | 8903 ft | 287 kts | 330° |
| 2026-05-05 06:04 | 21.99972 | 113.82926 | 8778 ft | 270 kts | 330° |
| 2026-05-05 06:04 | 22.01630 | 113.82099 | 8461 ft | 266 kts | 330° |
| 2026-05-05 06:04 | 22.03285 | 113.81268 | 8094 ft | 255 kts | 330° |
| 2026-05-05 06:05 | 22.04895 | 113.80461 | 7915 ft | 251 kts | 331° |
| 2026-05-05 06:05 | 22.06503 | 113.79653 | 7501 ft | 257 kts | 331° |
| 2026-05-05 06:05 | 22.08110 | 113.78844 | 7143 ft | 262 kts | 332° |
| 2026-05-05 06:05 | 22.09677 | 113.78056 | 6746 ft | 252 kts | 332° |
| 2026-05-05 06:06 | 22.11303 | 113.77238 | 6278 ft | 257 kts | 333° |
| 2026-05-05 06:06 | 22.12904 | 113.76434 | 5786 ft | 253 kts | 334° |
| 2026-05-05 06:06 | 22.14467 | 113.75650 | 5288 ft | 248 kts | 335° |
| 2026-05-05 06:06 | 22.15986 | 113.74890 | 4804 ft | 242 kts | 335° |
| 2026-05-05 06:07 | 22.17473 | 113.74150 | 4291 ft | 231 kts | 336° |
| 2026-05-05 06:07 | 22.18954 | 113.73547 | 3817 ft | 222 kts | 353° |
| 2026-05-05 06:07 | 22.20439 | 113.73598 | 3345 ft | 208 kts | 18° |
| 2026-05-05 06:07 | 22.21759 | 113.74110 | 2930 ft | 198 kts | 29° |
| 2026-05-05 06:08 | 22.22933 | 113.74793 | 2652 ft | 186 kts | 33° |
| 2026-05-05 06:08 | 22.24008 | 113.75444 | 2386 ft | 176 kts | 32° |
| 2026-05-05 06:08 | 22.24951 | 113.76083 | 2182 ft | 158 kts | 45° |
| 2026-05-05 06:08 | 22.25557 | 113.77013 | 1997 ft | 152 kts | 67° |
| 2026-05-05 06:09 | 22.25919 | 113.78036 | 1965 ft | 152 kts | 75° |
| 2026-05-05 06:09 | 22.26226 | 113.79136 | 1945 ft | 152 kts | 73° |
| 2026-05-05 06:09 | 22.26563 | 113.80218 | 1849 ft | 153 kts | 72° |
| 2026-05-05 06:09 | 22.26914 | 113.81343 | 1687 ft | 167 kts | 72° |
| 2026-05-05 06:10 | 22.27274 | 113.82510 | 1433 ft | 164 kts | 72° |
| 2026-05-05 06:10 | 22.27643 | 113.83657 | 1258 ft | 160 kts | 70° |
| 2026-05-05 06:10 | 22.27994 | 113.84730 | 1061 ft | 154 kts | 72° |
| 2026-05-05 06:10 | 22.28296 | 113.85676 | 838 ft | 153 kts | 71° |
| 2026-05-05 06:11 | 22.28634 | 113.86767 | 650 ft | 160 kts | 72° |
| 2026-05-05 06:11 | 22.28925 | 113.87681 | 493 ft | 150 kts | 69° |
| 2026-05-05 06:11 | 22.29267 | 113.88722 | 295 ft | 147 kts | 70° |
| 2026-05-05 06:11 | 22.29598 | 113.89728 | 125 ft | 144 kts | 69° |
| 2026-05-05 06:12 | 22.29918 | 113.90701 | 36 ft | 129 kts | 70° |
| 2026-05-05 06:12 | 22.30164 | 113.91464 | 38 ft | 88 kts | 71° |
| 2026-05-05 06:12 | 22.30315 | 113.91932 | 39 ft | 48 kts | 71° |
| 2026-05-05 06:12 | 22.30376 | 113.92172 | 41 ft | 24 kts | 92° |
| 2026-05-05 06:13 | 22.30361 | 113.92331 | 41 ft | 19 kts | 104° |
| 2026-05-05 06:13 | 22.30340 | 113.92422 | 40 ft | 12 kts | 103° |
| 2026-05-05 06:13 | 22.30324 | 113.92509 | 40 ft | 10 kts | 99° |
| 2026-05-05 06:13 | 22.30326 | 113.92564 | 39 ft | 6 kts | 71° |
| 2026-05-05 06:14 | 22.30343 | 113.92614 | 40 ft | 8 kts | 70° |
| 2026-05-05 06:14 | 22.30358 | 113.92669 | 39 ft | 8 kts | 98° |
| 2026-05-05 06:14 | 22.30322 | 113.92709 | 39 ft | 1 kts | 168° |
| 2026-05-05 06:14 | 22.30303 | 113.92713 | 37 ft | 5 kts | 167° |
| 2026-05-05 06:15 | 22.30277 | 113.92720 | 37 ft | 6 kts | 165° |
| 2026-05-05 06:15 | 22.30221 | 113.92736 | 40 ft | 8 kts | 164° |
| 2026-05-05 06:15 | 22.30173 | 113.92722 | 39 ft | 6 kts | 237° |
| 2026-05-05 06:15 | 22.30153 | 113.92679 | 39 ft | 8 kts | 248° |
| 2026-05-05 06:16 | 22.30129 | 113.92615 | 37 ft | 8 kts | 248° |
| 2026-05-05 06:16 | 22.30112 | 113.92569 | 39 ft | 6 kts | 249° |
| 2026-05-05 06:16 | 22.30090 | 113.92540 | 40 ft | 6 kts | 189° |
| 2026-05-05 06:16 | 22.30051 | 113.92545 | 40 ft | 6 kts | 163° |
| 2026-05-05 06:17 | 22.30020 | 113.92556 | 38 ft | 5 kts | 161° |
| 2026-05-05 06:17 | 22.30011 | 113.92559 | 37 ft | 0 kts | 161° |